sensor_id;sensor_type;location;lat;lon;timestamp;pressure;altitude;pressure_sealevel;temperature;humidity
64200;BME280;50516;52.272;5.136;2023-08-01T00:00:52;99837.28;;;16.68;100.00
64200;BME280;50516;52.272;5.136;2023-08-01T00:03:18;99829.34;;;16.79;100.00
64200;BME280;50516;52.272;5.136;2023-08-01T00:05:44;99826.34;;;16.84;99.85
64200;BME280;50516;52.272;5.136;2023-08-01T00:08:12;99818.25;;;16.79;99.46
64200;BME280;50516;52.272;5.136;2023-08-01T00:10:38;99821.16;;;16.83;99.68
64200;BME280;50516;52.272;5.136;2023-08-01T00:13:03;99823.81;;;16.79;100.00
64200;BME280;50516;52.272;5.136;2023-08-01T00:15:29;99828.88;;;16.77;100.00
64200;BME280;50516;52.272;5.136;2023-08-01T00:17:54;99819.56;;;16.82;99.88
64200;BME280;50516;52.272;5.136;2023-08-01T00:20:19;99823.81;;;16.79;99.73
64200;BME280;50516;52.272;5.136;2023-08-01T00:22:45;99824.00;;;16.74;100.00
64200;BME280;50516;52.272;5.136;2023-08-01T00:25:10;99824.13;;;16.77;100.00
64200;BME280;50516;52.272;5.136;2023-08-01T00:27:36;99820.78;;;16.72;100.00
64200;BME280;50516;52.272;5.136;2023-08-01T00:30:01;99812.13;;;16.73;100.00
64200;BME280;50516;52.272;5.136;2023-08-01T00:32:26;99802.50;;;16.71;100.00
64200;BME280;50516;52.272;5.136;2023-08-01T00:34:52;99806.59;;;16.73;100.00
64200;BME280;50516;52.272;5.136;2023-08-01T00:37:17;99803.59;;;16.78;100.00
64200;BME280;50516;52.272;5.136;2023-08-01T00:39:42;99799.97;;;16.87;100.00
64200;BME280;50516;52.272;5.136;2023-08-01T00:42:08;99785.00;;;16.79;100.00
64200;BME280;50516;52.272;5.136;2023-08-01T00:44:33;99774.59;;;16.76;100.00
64200;BME280;50516;52.272;5.136;2023-08-01T00:46:58;99771.56;;;16.69;100.00
64200;BME280;50516;52.272;5.136;2023-08-01T00:49:24;99766.69;;;16.66;100.00
64200;BME280;50516;52.272;5.136;2023-08-01T00:51:50;99768.00;;;16.68;100.00
64200;BME280;50516;52.272;5.136;2023-08-01T00:54:15;99760.06;;;16.58;100.00
64200;BME280;50516;52.272;5.136;2023-08-01T00:56:42;99768.72;;;16.56;100.00
64200;BME280;50516;52.272;5.136;2023-08-01T00:59:07;99756.97;;;16.59;100.00
64200;BME280;50516;52.272;5.136;2023-08-01T01:01:33;99764.72;;;16.66;100.00
64200;BME280;50516;52.272;5.136;2023-08-01T01:03:59;99757.75;;;16.60;100.00
64200;BME280;50516;52.272;5.136;2023-08-01T01:08:59;99760.63;;;16.51;100.00
64200;BME280;50516;52.272;5.136;2023-08-01T01:11:25;99762.84;;;16.37;100.00
64200;BME280;50516;52.272;5.136;2023-08-01T01:13:50;99750.44;;;16.43;100.00
64200;BME280;50516;52.272;5.136;2023-08-01T01:16:19;99758.88;;;16.25;100.00
64200;BME280;50516;52.272;5.136;2023-08-01T01:18:45;99747.91;;;16.29;100.00
64200;BME280;50516;52.272;5.136;2023-08-01T01:21:10;99751.97;;;16.32;100.00
64200;BME280;50516;52.272;5.136;2023-08-01T01:23:36;99746.44;;;16.32;100.00
64200;BME280;50516;52.272;5.136;2023-08-01T01:26:02;99745.47;;;16.28;100.00
64200;BME280;50516;52.272;5.136;2023-08-01T01:28:30;99750.44;;;16.22;100.00
64200;BME280;50516;52.272;5.136;2023-08-01T01:30:56;99753.31;;;16.25;100.00
64200;BME280;50516;52.272;5.136;2023-08-01T01:33:22;99751.03;;;16.28;100.00
64200;BME280;50516;52.272;5.136;2023-08-01T01:35:48;99755.88;;;16.31;100.00
64200;BME280;50516;52.272;5.136;2023-08-01T01:38:14;99749.88;;;16.29;100.00
64200;BME280;50516;52.272;5.136;2023-08-01T01:40:39;99752.66;;;16.29;100.00
64200;BME280;50516;52.272;5.136;2023-08-01T01:43:04;99744.69;;;16.27;100.00
64200;BME280;50516;52.272;5.136;2023-08-01T01:45:30;99745.47;;;16.28;100.00
64200;BME280;50516;52.272;5.136;2023-08-01T01:47:55;99737.19;;;16.28;100.00
64200;BME280;50516;52.272;5.136;2023-08-01T01:50:20;99749.81;;;16.16;100.00
64200;BME280;50516;52.272;5.136;2023-08-01T01:52:46;99737.25;;;16.19;100.00
64200;BME280;50516;52.272;5.136;2023-08-01T01:55:11;99743.53;;;16.28;100.00
64200;BME280;50516;52.272;5.136;2023-08-01T01:57:37;99747.00;;;16.25;100.00
64200;BME280;50516;52.272;5.136;2023-08-01T02:00:04;99735.16;;;16.37;100.00
64200;BME280;50516;52.272;5.136;2023-08-01T02:02:29;99739.22;;;16.39;100.00
64200;BME280;50516;52.272;5.136;2023-08-01T02:04:55;99742.78;;;16.40;100.00
64200;BME280;50516;52.272;5.136;2023-08-01T02:07:20;99730.06;;;16.39;100.00
64200;BME280;50516;52.272;5.136;2023-08-01T02:09:45;99729.28;;;16.38;100.00
64200;BME280;50516;52.272;5.136;2023-08-01T02:12:11;99744.88;;;16.43;100.00
64200;BME280;50516;52.272;5.136;2023-08-01T02:14:39;99736.09;;;16.41;100.00
64200;BME280;50516;52.272;5.136;2023-08-01T02:17:04;99738.53;;;16.42;100.00
64200;BME280;50516;52.272;5.136;2023-08-01T02:19:30;99739.09;;;16.36;100.00
64200;BME280;50516;52.272;5.136;2023-08-01T02:21:55;99742.00;;;16.39;100.00
64200;BME280;50516;52.272;5.136;2023-08-01T02:24:21;99752.56;;;16.37;100.00
64200;BME280;50516;52.272;5.136;2023-08-01T02:26:48;99741.72;;;16.32;100.00
64200;BME280;50516;52.272;5.136;2023-08-01T02:29:14;99732.13;;;16.30;100.00
64200;BME280;50516;52.272;5.136;2023-08-01T02:31:39;99727.25;;;16.27;100.00
64200;BME280;50516;52.272;5.136;2023-08-01T02:34:04;99723.31;;;16.28;100.00
64200;BME280;50516;52.272;5.136;2023-08-01T02:36:29;99730.84;;;16.27;100.00
64200;BME280;50516;52.272;5.136;2023-08-01T02:38:55;99731.28;;;16.29;100.00
64200;BME280;50516;52.272;5.136;2023-08-01T02:41:20;99728.88;;;16.28;100.00
64200;BME280;50516;52.272;5.136;2023-08-01T02:43:45;99721.31;;;16.37;100.00
64200;BME280;50516;52.272;5.136;2023-08-01T02:46:11;99732.13;;;16.30;100.00
64200;BME280;50516;52.272;5.136;2023-08-01T02:48:36;99734.06;;;16.29;100.00
64200;BME280;50516;52.272;5.136;2023-08-01T02:51:02;99741.13;;;16.27;100.00
64200;BME280;50516;52.272;5.136;2023-08-01T02:53:27;99739.00;;;16.23;100.00
64200;BME280;50516;52.272;5.136;2023-08-01T02:55:52;99735.69;;;16.30;100.00
64200;BME280;50516;52.272;5.136;2023-08-01T02:58:18;99731.16;;;16.25;100.00
64200;BME280;50516;52.272;5.136;2023-08-01T03:00:43;99723.16;;;16.33;100.00
64200;BME280;50516;52.272;5.136;2023-08-01T03:03:08;99727.66;;;16.37;100.00
64200;BME280;50516;52.272;5.136;2023-08-01T03:05:37;99732.31;;;16.46;100.00
64200;BME280;50516;52.272;5.136;2023-08-01T03:08:03;99724.69;;;16.42;100.00
64200;BME280;50516;52.272;5.136;2023-08-01T03:10:29;99716.97;;;16.48;100.00
64200;BME280;50516;52.272;5.136;2023-08-01T03:12:54;99726.16;;;16.40;100.00
64200;BME280;50516;52.272;5.136;2023-08-01T03:15:20;99723.88;;;16.42;100.00
64200;BME280;50516;52.272;5.136;2023-08-01T03:17:45;99718.19;;;16.38;100.00
64200;BME280;50516;52.272;5.136;2023-08-01T03:20:11;99719.28;;;16.46;100.00
64200;BME280;50516;52.272;5.136;2023-08-01T03:22:39;99721.31;;;16.37;100.00
64200;BME280;50516;52.272;5.136;2023-08-01T03:25:05;99727.59;;;16.46;100.00
64200;BME280;50516;52.272;5.136;2023-08-01T03:27:33;99719.69;;;16.36;100.00
64200;BME280;50516;52.272;5.136;2023-08-01T03:29:58;99731.47;;;16.33;100.00
64200;BME280;50516;52.272;5.136;2023-08-01T03:32:24;99718.41;;;16.33;100.00
64200;BME280;50516;52.272;5.136;2023-08-01T03:34:49;99720.44;;;16.24;100.00
64200;BME280;50516;52.272;5.136;2023-08-01T03:37:15;99729.16;;;16.14;100.00
64200;BME280;50516;52.272;5.136;2023-08-01T03:39:41;99719.63;;;16.23;100.00
64200;BME280;50516;52.272;5.136;2023-08-01T03:42:06;99710.56;;;16.35;100.00
64200;BME280;50516;52.272;5.136;2023-08-01T03:44:33;99717.13;;;16.31;100.00
64200;BME280;50516;52.272;5.136;2023-08-01T03:46:58;99724.50;;;16.27;100.00
64200;BME280;50516;52.272;5.136;2023-08-01T03:49:23;99736.03;;;16.29;100.00
64200;BME280;50516;52.272;5.136;2023-08-01T03:51:49;99724.16;;;16.28;100.00
64200;BME280;50516;52.272;5.136;2023-08-01T03:54:14;99730.50;;;16.29;100.00
64200;BME280;50516;52.272;5.136;2023-08-01T03:56:39;99725.25;;;16.36;100.00
64200;BME280;50516;52.272;5.136;2023-08-01T03:59:08;99724.41;;;16.35;100.00
64200;BME280;50516;52.272;5.136;2023-08-01T04:01:33;99737.47;;;16.35;100.00
64200;BME280;50516;52.272;5.136;2023-08-01T04:03:59;99725.63;;;16.25;100.00
64200;BME280;50516;52.272;5.136;2023-08-01T04:06:24;99721.97;;;16.34;100.00
64200;BME280;50516;52.272;5.136;2023-08-01T04:08:49;99729.03;;;16.31;100.00
64200;BME280;50516;52.272;5.136;2023-08-01T04:11:15;99728.69;;;16.33;100.00
64200;BME280;50516;52.272;5.136;2023-08-01T04:13:40;99723.94;;;16.33;100.00
64200;BME280;50516;52.272;5.136;2023-08-01T04:16:05;99723.88;;;16.42;100.00
64200;BME280;50516;52.272;5.136;2023-08-01T04:18:31;99726.84;;;16.37;100.00
64200;BME280;50516;52.272;5.136;2023-08-01T04:20:56;99734.69;;;16.35;100.00
64200;BME280;50516;52.272;5.136;2023-08-01T04:23:21;99721.44;;;16.40;100.00
64200;BME280;50516;52.272;5.136;2023-08-01T04:25:47;99716.03;;;16.44;100.00
64200;BME280;50516;52.272;5.136;2023-08-01T04:28:12;99725.91;;;16.54;100.00
64200;BME280;50516;52.272;5.136;2023-08-01T04:30:37;99728.91;;;16.61;100.00
64200;BME280;50516;52.272;5.136;2023-08-01T04:33:04;99722.91;;;16.59;100.00
64200;BME280;50516;52.272;5.136;2023-08-01T04:35:29;99720.19;;;16.50;100.00
64200;BME280;50516;52.272;5.136;2023-08-01T04:37:54;99725.41;;;16.52;100.00
64200;BME280;50516;52.272;5.136;2023-08-01T04:40:20;99720.59;;;16.61;100.00
64200;BME280;50516;52.272;5.136;2023-08-01T04:42:45;99724.50;;;16.60;100.00
64200;BME280;50516;52.272;5.136;2023-08-01T04:45:10;99723.72;;;16.59;100.00
64200;BME280;50516;52.272;5.136;2023-08-01T04:47:36;99725.59;;;16.68;100.00
64200;BME280;50516;52.272;5.136;2023-08-01T04:50:01;99734.25;;;16.66;100.00
64200;BME280;50516;52.272;5.136;2023-08-01T04:52:26;99737.34;;;16.65;100.00
64200;BME280;50516;52.272;5.136;2023-08-01T04:54:52;99739.81;;;16.45;100.00
64200;BME280;50516;52.272;5.136;2023-08-01T04:57:17;99735.97;;;16.16;100.00
64200;BME280;50516;52.272;5.136;2023-08-01T04:59:42;99738.06;;;16.19;100.00
64200;BME280;50516;52.272;5.136;2023-08-01T05:02:08;99731.25;;;16.17;100.00
64200;BME280;50516;52.272;5.136;2023-08-01T05:04:33;99738.59;;;16.13;100.00
64200;BME280;50516;52.272;5.136;2023-08-01T05:06:58;99736.50;;;16.31;100.00
64200;BME280;50516;52.272;5.136;2023-08-01T05:09:24;99735.97;;;16.58;100.00
64200;BME280;50516;52.272;5.136;2023-08-01T05:11:49;99729.47;;;16.54;100.00
64200;BME280;50516;52.272;5.136;2023-08-01T05:14:14;99745.09;;;16.59;100.00
64200;BME280;50516;52.272;5.136;2023-08-01T05:16:40;99733.44;;;16.66;100.00
64200;BME280;50516;52.272;5.136;2023-08-01T05:19:05;99738.56;;;16.76;100.00
64200;BME280;50516;52.272;5.136;2023-08-01T05:21:30;99740.84;;;16.74;100.00
64200;BME280;50516;52.272;5.136;2023-08-01T05:23:56;99730.31;;;16.88;100.00
64200;BME280;50516;52.272;5.136;2023-08-01T05:26:21;99734.72;;;16.89;100.00
64200;BME280;50516;52.272;5.136;2023-08-01T05:28:46;99735.22;;;16.83;100.00
64200;BME280;50516;52.272;5.136;2023-08-01T05:31:12;99737.50;;;17.02;100.00
64200;BME280;50516;52.272;5.136;2023-08-01T05:33:37;99735.59;;;17.27;100.00
64200;BME280;50516;52.272;5.136;2023-08-01T05:36:03;99735.03;;;17.33;100.00
64200;BME280;50516;52.272;5.136;2023-08-01T05:38:28;99738.69;;;17.13;100.00
64200;BME280;50516;52.272;5.136;2023-08-01T05:40:53;99737.84;;;17.00;100.00
64200;BME280;50516;52.272;5.136;2023-08-01T05:43:19;99749.78;;;17.01;100.00
64200;BME280;50516;52.272;5.136;2023-08-01T05:45:44;99744.75;;;16.94;100.00
64200;BME280;50516;52.272;5.136;2023-08-01T05:48:09;99749.63;;;16.97;100.00
64200;BME280;50516;52.272;5.136;2023-08-01T05:50:35;99749.72;;;16.88;100.00
64200;BME280;50516;52.272;5.136;2023-08-01T05:53:01;99751.50;;;16.84;100.00
64200;BME280;50516;52.272;5.136;2023-08-01T05:55:26;99759.13;;;16.75;100.00
64200;BME280;50516;52.272;5.136;2023-08-01T05:57:51;99759.59;;;16.77;100.00
64200;BME280;50516;52.272;5.136;2023-08-01T06:00:18;99764.53;;;16.92;100.00
64200;BME280;50516;52.272;5.136;2023-08-01T06:02:47;99763.41;;;17.06;100.00
64200;BME280;50516;52.272;5.136;2023-08-01T06:05:12;99770.13;;;17.17;100.00
64200;BME280;50516;52.272;5.136;2023-08-01T06:07:37;99775.03;;;17.45;100.00
64200;BME280;50516;52.272;5.136;2023-08-01T06:10:03;99771.25;;;17.62;100.00
64200;BME280;50516;52.272;5.136;2023-08-01T06:12:29;99767.06;;;17.68;100.00
64200;BME280;50516;52.272;5.136;2023-08-01T06:14:54;99773.91;;;18.08;100.00
64200;BME280;50516;52.272;5.136;2023-08-01T06:17:20;99777.78;;;18.31;100.00
64200;BME280;50516;52.272;5.136;2023-08-01T06:19:45;99776.69;;;17.95;100.00
64200;BME280;50516;52.272;5.136;2023-08-01T06:22:11;99772.97;;;17.66;100.00
64200;BME280;50516;52.272;5.136;2023-08-01T06:24:36;99785.13;;;18.11;100.00
64200;BME280;50516;52.272;5.136;2023-08-01T06:27:02;99788.19;;;18.47;99.30
64200;BME280;50516;52.272;5.136;2023-08-01T06:29:27;99786.63;;;18.33;99.82
64200;BME280;50516;52.272;5.136;2023-08-01T06:31:52;99788.91;;;18.31;99.95
64200;BME280;50516;52.272;5.136;2023-08-01T06:34:18;99783.16;;;18.12;99.26
64200;BME280;50516;52.272;5.136;2023-08-01T06:36:43;99776.53;;;18.41;99.22
64200;BME280;50516;52.272;5.136;2023-08-01T06:39:08;99797.56;;;18.83;97.59
64200;BME280;50516;52.272;5.136;2023-08-01T06:41:34;99791.91;;;18.91;96.29
64200;BME280;50516;52.272;5.136;2023-08-01T06:43:59;99786.88;;;18.69;95.46
64200;BME280;50516;52.272;5.136;2023-08-01T06:46:24;99793.50;;;18.52;96.14
64200;BME280;50516;52.272;5.136;2023-08-01T06:48:50;99796.19;;;18.48;96.65
64200;BME280;50516;52.272;5.136;2023-08-01T06:51:15;99796.84;;;18.17;98.36
64200;BME280;50516;52.272;5.136;2023-08-01T06:53:40;99786.28;;;18.63;94.90
64200;BME280;50516;52.272;5.136;2023-08-01T06:56:06;99791.72;;;18.72;95.23
64200;BME280;50516;52.272;5.136;2023-08-01T06:58:31;99790.00;;;18.67;94.04
64200;BME280;50516;52.272;5.136;2023-08-01T07:00:57;99794.16;;;18.73;95.00
64200;BME280;50516;52.272;5.136;2023-08-01T07:03:22;99787.00;;;18.60;94.03
64200;BME280;50516;52.272;5.136;2023-08-01T07:05:47;99791.25;;;18.29;96.06
64200;BME280;50516;52.272;5.136;2023-08-01T07:08:13;99797.19;;;18.15;96.81
64200;BME280;50516;52.272;5.136;2023-08-01T07:10:38;99792.44;;;18.03;97.50
64200;BME280;50516;52.272;5.136;2023-08-01T07:13:04;99796.38;;;17.90;98.33
64200;BME280;50516;52.272;5.136;2023-08-01T07:15:30;99792.53;;;17.70;98.14
64200;BME280;50516;52.272;5.136;2023-08-01T07:17:56;99806.06;;;17.59;98.93
64200;BME280;50516;52.272;5.136;2023-08-01T07:20:21;99802.94;;;17.61;98.16
64200;BME280;50516;52.272;5.136;2023-08-01T07:22:46;99809.66;;;18.21;95.11
64200;BME280;50516;52.272;5.136;2023-08-01T07:25:12;99812.59;;;17.88;96.04
64200;BME280;50516;52.272;5.136;2023-08-01T07:27:38;99801.91;;;17.65;97.58
64200;BME280;50516;52.272;5.136;2023-08-01T07:30:04;99805.38;;;17.62;98.18
64200;BME280;50516;52.272;5.136;2023-08-01T07:32:30;99806.88;;;17.72;97.81
64200;BME280;50516;52.272;5.136;2023-08-01T07:34:56;99809.28;;;17.61;97.83
64200;BME280;50516;52.272;5.136;2023-08-01T07:37:21;99810.38;;;18.06;95.98
64200;BME280;50516;52.272;5.136;2023-08-01T07:39:46;99817.38;;;18.81;94.68
64200;BME280;50516;52.272;5.136;2023-08-01T07:42:12;99809.03;;;19.22;93.35
64200;BME280;50516;52.272;5.136;2023-08-01T07:44:37;99810.84;;;19.46;92.65
64200;BME280;50516;52.272;5.136;2023-08-01T07:47:02;99815.69;;;19.65;91.60
64200;BME280;50516;52.272;5.136;2023-08-01T07:49:28;99818.94;;;19.07;93.72
64200;BME280;50516;52.272;5.136;2023-08-01T07:51:53;99831.28;;;18.53;96.56
64200;BME280;50516;52.272;5.136;2023-08-01T07:54:18;99828.53;;;18.28;97.77
64200;BME280;50516;52.272;5.136;2023-08-01T07:56:44;99830.63;;;17.94;97.84
64200;BME280;50516;52.272;5.136;2023-08-01T07:59:10;99827.28;;;17.88;98.80
64200;BME280;50516;52.272;5.136;2023-08-01T08:01:36;99826.69;;;18.08;98.04
64200;BME280;50516;52.272;5.136;2023-08-01T08:04:01;99836.97;;;18.19;96.87
64200;BME280;50516;52.272;5.136;2023-08-01T08:06:26;99834.09;;;18.28;97.16
64200;BME280;50516;52.272;5.136;2023-08-01T08:08:52;99835.25;;;18.39;97.58
64200;BME280;50516;52.272;5.136;2023-08-01T08:11:17;99848.19;;;18.48;96.02
64200;BME280;50516;52.272;5.136;2023-08-01T08:13:42;99847.25;;;18.43;95.97
64200;BME280;50516;52.272;5.136;2023-08-01T08:16:08;99852.03;;;18.43;97.13
64200;BME280;50516;52.272;5.136;2023-08-01T08:18:33;99843.78;;;18.47;97.19
64200;BME280;50516;52.272;5.136;2023-08-01T08:20:58;99837.97;;;18.64;96.60
64200;BME280;50516;52.272;5.136;2023-08-01T08:23:24;99840.69;;;18.89;95.90
64200;BME280;50516;52.272;5.136;2023-08-01T08:25:49;99845.44;;;19.45;93.59
64200;BME280;50516;52.272;5.136;2023-08-01T08:28:30;99835.44;;;19.88;90.95
64200;BME280;50516;52.272;5.136;2023-08-01T08:30:56;99836.47;;;19.67;90.59
64200;BME280;50516;52.272;5.136;2023-08-01T08:33:22;99833.41;;;19.57;91.53
64200;BME280;50516;52.272;5.136;2023-08-01T08:35:48;99842.06;;;19.39;89.73
64200;BME280;50516;52.272;5.136;2023-08-01T08:38:13;99838.22;;;19.44;91.37
64200;BME280;50516;52.272;5.136;2023-08-01T08:41:08;99850.16;;;19.28;88.11
64200;BME280;50516;52.272;5.136;2023-08-01T08:43:34;99850.81;;;19.09;90.20
64200;BME280;50516;52.272;5.136;2023-08-01T08:46:01;99845.03;;;19.30;89.97
64200;BME280;50516;52.272;5.136;2023-08-01T08:48:28;99848.84;;;19.54;88.13
64200;BME280;50516;52.272;5.136;2023-08-01T08:50:54;99859.31;;;19.29;88.71
64200;BME280;50516;52.272;5.136;2023-08-01T08:53:22;99855.72;;;19.28;90.28
64200;BME280;50516;52.272;5.136;2023-08-01T08:55:48;99843.16;;;19.50;86.71
64200;BME280;50516;52.272;5.136;2023-08-01T08:58:15;99847.28;;;19.85;87.59
64200;BME280;50516;52.272;5.136;2023-08-01T09:00:40;99847.78;;;19.75;85.45
64200;BME280;50516;52.272;5.136;2023-08-01T09:03:06;99848.41;;;19.68;83.39
64200;BME280;50516;52.272;5.136;2023-08-01T09:05:36;99857.69;;;20.04;84.83
64200;BME280;50516;52.272;5.136;2023-08-01T09:08:07;99867.00;;;19.64;83.29
64200;BME280;50516;52.272;5.136;2023-08-01T09:10:36;99866.81;;;19.12;83.24
64200;BME280;50516;52.272;5.136;2023-08-01T09:13:01;99874.84;;;19.02;85.49
64200;BME280;50516;52.272;5.136;2023-08-01T09:15:27;99874.97;;;18.80;84.61
64200;BME280;50516;52.272;5.136;2023-08-01T09:17:55;99860.97;;;18.77;84.29
64200;BME280;50516;52.272;5.136;2023-08-01T09:20:28;99876.88;;;18.52;85.77
64200;BME280;50516;52.272;5.136;2023-08-01T09:22:54;99880.16;;;18.41;85.99
64200;BME280;50516;52.272;5.136;2023-08-01T09:25:19;99883.53;;;18.35;87.78
64200;BME280;50516;52.272;5.136;2023-08-01T09:27:45;99883.38;;;18.31;87.05
64200;BME280;50516;52.272;5.136;2023-08-01T09:30:14;99889.06;;;18.59;87.74
64200;BME280;50516;52.272;5.136;2023-08-01T09:32:52;99889.34;;;19.23;85.54
64200;BME280;50516;52.272;5.136;2023-08-01T09:35:18;99886.94;;;19.22;87.38
64200;BME280;50516;52.272;5.136;2023-08-01T09:37:43;99889.59;;;19.91;84.09
64200;BME280;50516;52.272;5.136;2023-08-01T09:40:09;99890.66;;;20.34;81.50
64200;BME280;50516;52.272;5.136;2023-08-01T09:42:42;99893.16;;;20.39;80.30
64200;BME280;50516;52.272;5.136;2023-08-01T09:45:15;99897.00;;;20.50;79.04
64200;BME280;50516;52.272;5.136;2023-08-01T09:47:42;99886.66;;;20.51;78.63
64200;BME280;50516;52.272;5.136;2023-08-01T09:50:13;99892.47;;;20.26;78.36
64200;BME280;50516;52.272;5.136;2023-08-01T09:52:45;99895.38;;;20.49;75.22
64200;BME280;50516;52.272;5.136;2023-08-01T09:55:12;99905.75;;;20.65;75.65
64200;BME280;50516;52.272;5.136;2023-08-01T09:57:37;99898.59;;;21.03;73.77
64200;BME280;50516;52.272;5.136;2023-08-01T10:00:06;99893.66;;;20.96;73.11
64200;BME280;50516;52.272;5.136;2023-08-01T10:02:34;99903.38;;;20.67;72.15
64200;BME280;50516;52.272;5.136;2023-08-01T10:05:02;99899.81;;;20.34;75.67
64200;BME280;50516;52.272;5.136;2023-08-01T10:07:29;99905.53;;;20.22;76.03
64200;BME280;50516;52.272;5.136;2023-08-01T10:09:57;99914.03;;;20.13;77.56
64200;BME280;50516;52.272;5.136;2023-08-01T10:12:25;99908.91;;;19.83;78.48
64200;BME280;50516;52.272;5.136;2023-08-01T10:14:52;99916.97;;;19.73;80.71
64200;BME280;50516;52.272;5.136;2023-08-01T10:17:18;99920.72;;;19.36;81.79
64200;BME280;50516;52.272;5.136;2023-08-01T10:19:43;99918.28;;;19.34;82.29
64200;BME280;50516;52.272;5.136;2023-08-01T10:22:09;99918.91;;;19.28;80.68
64200;BME280;50516;52.272;5.136;2023-08-01T10:24:35;99927.28;;;19.72;80.99
64200;BME280;50516;52.272;5.136;2023-08-01T10:27:15;99919.00;;;19.60;80.40
64200;BME280;50516;52.272;5.136;2023-08-01T10:29:43;99934.19;;;19.62;80.66
64200;BME280;50516;52.272;5.136;2023-08-01T10:32:09;99922.38;;;19.25;79.76
64200;BME280;50516;52.272;5.136;2023-08-01T10:34:35;99924.28;;;19.21;79.33
64200;BME280;50516;52.272;5.136;2023-08-01T10:37:00;99933.88;;;19.51;78.90
64200;BME280;50516;52.272;5.136;2023-08-01T10:39:27;99934.00;;;20.31;76.25
64200;BME280;50516;52.272;5.136;2023-08-01T10:42:00;99928.78;;;20.30;75.35
64200;BME280;50516;52.272;5.136;2023-08-01T10:44:27;99931.13;;;19.96;75.48
64200;BME280;50516;52.272;5.136;2023-08-01T10:46:58;99943.81;;;20.09;76.00
64200;BME280;50516;52.272;5.136;2023-08-01T10:49:39;99942.47;;;20.35;73.98
64200;BME280;50516;52.272;5.136;2023-08-01T10:52:20;99940.69;;;20.78;74.39
64200;BME280;50516;52.272;5.136;2023-08-01T10:54:58;99940.72;;;20.97;72.62
64200;BME280;50516;52.272;5.136;2023-08-01T10:57:28;99948.97;;;20.90;75.00
64200;BME280;50516;52.272;5.136;2023-08-01T10:59:55;99946.06;;;21.42;72.13
64200;BME280;50516;52.272;5.136;2023-08-01T11:02:23;99950.50;;;21.62;71.06
64200;BME280;50516;52.272;5.136;2023-08-01T11:04:56;99945.53;;;21.75;70.02
64200;BME280;50516;52.272;5.136;2023-08-01T11:07:21;99944.09;;;21.62;70.12
64200;BME280;50516;52.272;5.136;2023-08-01T11:09:47;99960.22;;;21.33;71.54
64200;BME280;50516;52.272;5.136;2023-08-01T11:12:12;99951.91;;;20.97;70.50
64200;BME280;50516;52.272;5.136;2023-08-01T11:14:37;99962.78;;;21.03;70.23
64200;BME280;50516;52.272;5.136;2023-08-01T11:17:03;99958.84;;;20.88;70.39
64200;BME280;50516;52.272;5.136;2023-08-01T11:19:29;99966.00;;;20.85;70.71
64200;BME280;50516;52.272;5.136;2023-08-01T11:21:56;99964.03;;;20.70;70.85
64200;BME280;50516;52.272;5.136;2023-08-01T11:24:23;99974.81;;;20.55;71.54
64200;BME280;50516;52.272;5.136;2023-08-01T11:26:49;99968.28;;;20.48;72.63
64200;BME280;50516;52.272;5.136;2023-08-01T11:29:17;99976.28;;;20.33;72.73
64200;BME280;50516;52.272;5.136;2023-08-01T11:31:56;99973.66;;;20.24;73.94
64200;BME280;50516;52.272;5.136;2023-08-01T11:34:22;99980.75;;;20.06;75.28
64200;BME280;50516;52.272;5.136;2023-08-01T11:36:48;99985.50;;;20.05;74.92
64200;BME280;50516;52.272;5.136;2023-08-01T11:39:15;99979.59;;;20.23;72.89
64200;BME280;50516;52.272;5.136;2023-08-01T11:41:41;99981.38;;;20.47;71.53
64200;BME280;50516;52.272;5.136;2023-08-01T11:44:07;99987.59;;;20.56;70.10
64200;BME280;50516;52.272;5.136;2023-08-01T11:46:35;99983.28;;;20.75;71.71
64200;BME280;50516;52.272;5.136;2023-08-01T11:49:01;99983.72;;;20.93;71.74
64200;BME280;50516;52.272;5.136;2023-08-01T11:51:28;99983.41;;;21.33;69.85
64200;BME280;50516;52.272;5.136;2023-08-01T11:54:03;99986.53;;;21.12;68.30
64200;BME280;50516;52.272;5.136;2023-08-01T11:56:29;99983.31;;;20.94;68.70
64200;BME280;50516;52.272;5.136;2023-08-01T11:58:55;99996.47;;;21.29;67.96
64200;BME280;50516;52.272;5.136;2023-08-01T12:01:21;99997.22;;;21.65;67.92
64200;BME280;50516;52.272;5.136;2023-08-01T12:03:47;99992.66;;;21.57;66.73
64200;BME280;50516;52.272;5.136;2023-08-01T12:06:14;99985.81;;;21.35;66.08
64200;BME280;50516;52.272;5.136;2023-08-01T12:08:41;99980.59;;;21.33;66.62
64200;BME280;50516;52.272;5.136;2023-08-01T12:11:20;99996.06;;;21.66;65.53
64200;BME280;50516;52.272;5.136;2023-08-01T12:13:46;99994.72;;;21.60;65.36
64200;BME280;50516;52.272;5.136;2023-08-01T12:16:12;100005.19;;;21.28;67.88
64200;BME280;50516;52.272;5.136;2023-08-01T12:18:40;100009.81;;;21.20;66.71
64200;BME280;50516;52.272;5.136;2023-08-01T12:21:08;100001.88;;;21.58;64.85
64200;BME280;50516;52.272;5.136;2023-08-01T12:23:33;99999.75;;;21.70;65.00
64200;BME280;50516;52.272;5.136;2023-08-01T12:25:58;100004.41;;;21.86;64.30
64200;BME280;50516;52.272;5.136;2023-08-01T12:28:24;100016.44;;;21.31;64.87
64200;BME280;50516;52.272;5.136;2023-08-01T12:30:49;100005.38;;;21.35;64.92
64200;BME280;50516;52.272;5.136;2023-08-01T12:33:16;100006.53;;;21.34;64.38
64200;BME280;50516;52.272;5.136;2023-08-01T12:35:41;100012.88;;;21.15;66.30
64200;BME280;50516;52.272;5.136;2023-08-01T12:38:10;100021.34;;;21.54;64.77
64200;BME280;50516;52.272;5.136;2023-08-01T12:40:35;100012.88;;;21.50;64.18
64200;BME280;50516;52.272;5.136;2023-08-01T12:43:00;100020.56;;;21.38;66.10
64200;BME280;50516;52.272;5.136;2023-08-01T12:45:26;100031.22;;;20.49;68.56
64200;BME280;50516;52.272;5.136;2023-08-01T12:47:51;100040.91;;;19.79;68.32
64200;BME280;50516;52.272;5.136;2023-08-01T12:50:16;100046.88;;;19.52;69.91
64200;BME280;50516;52.272;5.136;2023-08-01T12:52:42;100042.38;;;19.88;70.03